»·PEaware :: ASA250 KLAS-KSJC

ASA250 :: KLAS-KSJC

FLIGHT INFORMATION

Flight Status: Arrived
Operator:
Alaska Airlines
More flights by this operator :: More flights under this callsign
Pilot: Andrew J. (13363)
Aircraft: BOEING 727-200
(B722)
More flights by this aircraft type
Origin: KLAS McCarran Intl
United States
Destination: KSJC Mineta San Jose Intl
United States
More flights between these airports :: More routes between these airports
Route: +MCCRN4 BTY BIH HYP HYP5
File this flight plan on PilotEdge
Remarks: INFORMATION WHISKEY CURRENT
Altitude:
(Current/Filed)
27,000ft
Speed:
(Current/Filed)
480kts
Departed: 20-Mar-17 07:06 PM
Arrived: 20-Mar-17 08:25 PM
Distance/Time
Traveled:
335nm/1:19
Distance/Time
To Go:
Arrived

Flight Plot

Page will automatically refresh every two minutes.

Flight plan parsing failed; only flown route is shown


Map Options




Map Legend


Flown Route
Filed Route
Departure Airport
Arrival Airport
Navaid (VOR, NDB)
Fix

Horizontal Profiles

Position Reports

Time Latitude Longitude Heading Altitude Ground
Speed
20-Mar-17 18:35 36.085374 -115.139110 360 2153ft 0kts
20-Mar-17 18:36 36.085374 -115.139110 360 2153ft 0kts
20-Mar-17 18:37 36.085374 -115.139110 0 2152ft 0kts
20-Mar-17 18:38 36.085374 -115.139110 0 2152ft 0kts
20-Mar-17 18:39 36.085374 -115.139110 0 2152ft 0kts
20-Mar-17 18:40 36.085374 -115.139110 0 2152ft 0kts
20-Mar-17 18:41 36.085374 -115.139110 0 2152ft 0kts
20-Mar-17 18:42 36.085374 -115.139110 0 2152ft 0kts
20-Mar-17 18:43 36.085374 -115.139110 0 2152ft 0kts
20-Mar-17 18:44 36.085374 -115.139110 0 2152ft 0kts
20-Mar-17 18:45 36.085374 -115.139110 0 2152ft 0kts
20-Mar-17 18:46 36.085374 -115.139110 0 2152ft 0kts
20-Mar-17 18:47 36.085374 -115.139110 0 2152ft 0kts
20-Mar-17 18:48 36.085374 -115.139110 0 2152ft 0kts
20-Mar-17 18:49 36.085374 -115.139110 0 2152ft 0kts
20-Mar-17 18:50 36.085374 -115.139110 0 2152ft 0kts
20-Mar-17 18:51 36.085374 -115.139110 0 2152ft 0kts
20-Mar-17 18:52 36.085374 -115.139110 0 2152ft 0kts
20-Mar-17 18:53 36.085374 -115.139110 0 2152ft 0kts
20-Mar-17 18:54 36.085374 -115.139110 0 2152ft 0kts
20-Mar-17 18:55 36.085374 -115.139110 0 2152ft 0kts
20-Mar-17 18:56 36.085374 -115.139110 0 2152ft 0kts
20-Mar-17 18:57 36.085374 -115.139110 0 2152ft 0kts
20-Mar-17 18:58 36.084804 -115.139132 17 2152ft 11kts
20-Mar-17 18:59 36.084270 -115.140023 88 2152ft 0kts
20-Mar-17 19:00 36.084250 -115.139427 93 2153ft 11kts
20-Mar-17 19:01 36.083892 -115.134598 137 2153ft 15kts
20-Mar-17 19:02 36.080784 -115.133820 180 2152ft 12kts
20-Mar-17 19:03 36.078489 -115.133727 156 2152ft 12kts
20-Mar-17 19:04 36.078236 -115.128978 90 2153ft 18kts
20-Mar-17 19:05 36.078114 -115.122615 120 2153ft 15kts
20-Mar-17 19:06 36.076404 -115.123195 269 2152ft 40kts
20-Mar-17 19:07 36.076596 -115.167714 268 2567ft 179kts
20-Mar-17 19:08 36.074847 -115.233577 253 4456ft 200kts
20-Mar-17 19:09 36.023105 -115.266410 192 6121ft 264kts
20-Mar-17 19:10 35.949272 -115.284200 192 9701ft 265kts
20-Mar-17 19:11 35.870818 -115.296830 188 11986ft 304kts
20-Mar-17 19:12 35.788929 -115.317336 225 14630ft 306kts
20-Mar-17 19:13 35.759905 -115.413394 252 17515ft 301kts
20-Mar-17 19:14 35.736654 -115.517398 254 19033ft 333kts
20-Mar-17 19:15 35.784535 -115.616765 318 20676ft 390kts
20-Mar-17 19:16 35.863017 -115.695744 310 22328ft 397kts
20-Mar-17 19:17 35.946189 -115.787050 309 24039ft 407kts
20-Mar-17 19:18 36.030390 -115.880524 309 25777ft 412kts
20-Mar-17 19:19 36.114043 -115.973315 309 27358ft 416kts
20-Mar-17 19:20 36.200695 -116.068970 308 28586ft 422kts
20-Mar-17 19:21 36.287564 -116.166118 307 29976ft 421kts
20-Mar-17 19:22 36.373751 -116.262948 307 31328ft 416kts
20-Mar-17 19:23 36.458735 -116.358704 306 32522ft 412kts
20-Mar-17 19:24 36.543295 -116.454398 307 33011ft 424kts
20-Mar-17 19:25 36.637408 -116.561192 308 32060ft 474kts
20-Mar-17 19:26 36.729189 -116.665892 306 31991ft 494kts
20-Mar-17 19:27 36.830366 -116.782478 308 31963ft 514kts
20-Mar-17 19:28 36.934360 -116.902329 304 31908ft 501kts
20-Mar-17 19:29 37.031370 -117.024226 306 31935ft 496kts
20-Mar-17 19:30 37.128065 -117.139908 306 31968ft 491kts
20-Mar-17 19:31 37.188195 -117.281239 285 31992ft 456kts
20-Mar-17 19:32 37.239623 -117.425969 285 31979ft 454kts
20-Mar-17 19:33 37.291397 -117.570171 285 32024ft 452kts
20-Mar-17 19:34 37.327295 -117.674156 284 31793ft 456kts
20-Mar-17 19:35 37.376686 -117.819393 284 31963ft 451kts
20-Mar-17 19:36 37.426464 -117.965758 284 31897ft 453kts
20-Mar-17 19:37 37.476356 -118.111414 284 31804ft 454kts
20-Mar-17 19:38 37.526225 -118.256345 284 31896ft 453kts
20-Mar-17 19:39 37.583149 -118.398156 305 31943ft 478kts
20-Mar-17 19:40 37.714457 -118.443871 357 32130ft 533kts
20-Mar-17 19:41 37.830636 -118.517065 291 32122ft 446kts
20-Mar-17 19:42 37.834567 -118.656401 251 31782ft 410kts
20-Mar-17 19:43 37.809534 -118.802533 252 29435ft 442kts
20-Mar-17 19:44 37.781428 -118.956939 252 27152ft 463kts
20-Mar-17 19:45 37.751347 -119.114399 252 24562ft 452kts
20-Mar-17 19:46 37.723663 -119.258033 252 24138ft 388kts
20-Mar-17 19:47 37.701908 -119.379034 252 24139ft 321kts
20-Mar-17 19:48 37.685225 -119.479847 253 23358ft 296kts
20-Mar-17 19:49 37.668605 -119.586199 245 23559ft 319kts
20-Mar-17 19:50 37.628699 -119.679022 235 24039ft 352kts
20-Mar-17 19:51 37.572625 -119.782527 232 24086ft 369kts
20-Mar-17 19:52 37.511402 -119.890532 232 24003ft 390kts
20-Mar-17 19:53 37.447279 -120.003166 232 23971ft 408kts
20-Mar-17 19:54 37.381144 -120.118973 232 23760ft 413kts
20-Mar-17 19:55 37.314812 -120.234661 232 22001ft 404kts
20-Mar-17 19:56 37.248952 -120.347616 231 19334ft 397kts
20-Mar-17 19:57 37.200642 -120.466449 254 16971ft 388kts
20-Mar-17 19:58 37.174222 -120.594658 251 14595ft 378kts
20-Mar-17 19:59 37.149767 -120.701378 250 12421ft 379kts
20-Mar-17 20:00 37.121279 -120.823940 250 11303ft 337kts
20-Mar-17 20:01 37.097742 -120.924171 249 11363ft 284kts
20-Mar-17 20:02 37.076151 -121.015493 249 11051ft 277kts
20-Mar-17 20:03 37.064138 -121.104252 291 11055ft 272kts
20-Mar-17 20:04 37.130379 -121.144718 339 11143ft 271kts
20-Mar-17 20:05 37.196919 -121.178350 294 11210ft 264kts
20-Mar-17 20:06 37.227124 -121.269691 285 11288ft 325kts
20-Mar-17 20:07 37.260889 -121.382661 285 9759ft 379kts
20-Mar-17 20:08 37.292709 -121.482420 288 9467ft 268kts
20-Mar-17 20:09 37.323946 -121.555977 294 7562ft 261kts
20-Mar-17 20:10 37.363943 -121.628604 307 5137ft 261kts
20-Mar-17 20:11 37.407017 -121.689510 315 4335ft 203kts
20-Mar-17 20:12 37.451441 -121.739491 322 4909ft 235kts
20-Mar-17 20:13 37.501563 -121.792262 325 5064ft 228kts
20-Mar-17 20:14 37.537578 -121.853152 283 5024ft 212kts
20-Mar-17 20:15 37.559153 -121.919423 278 4919ft 212kts
20-Mar-17 20:16 37.574327 -121.990102 274 3958ft 209kts
20-Mar-17 20:17 37.586717 -122.059732 272 3601ft 206kts
20-Mar-17 20:18 37.577441 -122.116653 185 2658ft 154kts
20-Mar-17 20:19 37.538577 -122.103553 163 1276ft 135kts
20-Mar-17 20:20 37.505349 -122.085490 130 1025ft 164kts
20-Mar-17 20:21 37.472224 -122.048248 136 1098ft 140kts
20-Mar-17 20:22 37.445400 -122.019542 136 1061ft 123kts
20-Mar-17 20:23 37.419332 -121.991772 138 1012ft 132kts
20-Mar-17 20:24 37.393341 -121.963857 133 859ft 135kts
20-Mar-17 20:25 37.370842 -121.938826 134 89ft 124kts
20-Mar-17 20:26 37.358321 -121.924841 110 74ft 22kts
20-Mar-17 20:27 37.360797 -121.922985 318 74ft 19kts
20-Mar-17 20:28 37.363948 -121.924399 51 74ft 3kts
20-Mar-17 20:29 37.363978 -121.924352 50 74ft 0kts
20-Mar-17 20:30 37.363978 -121.924352 50 74ft 0kts
20-Mar-17 20:31 37.363978 -121.924352 50 74ft 0kts
20-Mar-17 20:32 37.363978 -121.924352 50 74ft 0kts
20-Mar-17 20:33 37.363978 -121.924352 50 74ft 0kts
20-Mar-17 20:34 37.363978 -121.924352 50 74ft 0kts
20-Mar-17 20:35 37.363978 -121.924352 50 74ft 0kts

Navigation Log

Ident Type
Flight plan parsing failed, navigation log unavailable